sensor_id;sensor_type;location;lat;lon;timestamp;P1;durP1;ratioP1;P2;durP2;ratioP2
77581;SDS011;66726;52.388;9.986;2023-06-04T00:00:37;2.90;;;2.40;;
77581;SDS011;66726;52.388;9.986;2023-06-04T00:03:09;3.37;;;2.33;;
77581;SDS011;66726;52.388;9.986;2023-06-04T00:05:41;3.13;;;2.47;;
77581;SDS011;66726;52.388;9.986;2023-06-04T00:08:12;3.67;;;2.17;;
77581;SDS011;66726;52.388;9.986;2023-06-04T00:10:44;3.43;;;2.20;;
77581;SDS011;66726;52.388;9.986;2023-06-04T00:13:18;2.90;;;2.20;;
77581;SDS011;66726;52.388;9.986;2023-06-04T00:15:50;2.70;;;2.20;;
77581;SDS011;66726;52.388;9.986;2023-06-04T00:18:22;3.27;;;2.17;;
77581;SDS011;66726;52.388;9.986;2023-06-04T00:20:53;4.13;;;2.23;;
77581;SDS011;66726;52.388;9.986;2023-06-04T00:23:25;2.73;;;2.03;;
77581;SDS011;66726;52.388;9.986;2023-06-04T00:25:57;2.40;;;2.03;;
77581;SDS011;66726;52.388;9.986;2023-06-04T00:28:32;3.87;;;2.20;;
77581;SDS011;66726;52.388;9.986;2023-06-04T00:31:04;2.93;;;1.87;;
77581;SDS011;66726;52.388;9.986;2023-06-04T00:33:38;3.80;;;1.90;;
77581;SDS011;66726;52.388;9.986;2023-06-04T00:36:10;5.17;;;2.00;;
77581;SDS011;66726;52.388;9.986;2023-06-04T00:38:42;3.07;;;2.07;;
77581;SDS011;66726;52.388;9.986;2023-06-04T00:41:15;3.13;;;2.13;;
77581;SDS011;66726;52.388;9.986;2023-06-04T00:43:48;2.93;;;2.63;;
77581;SDS011;66726;52.388;9.986;2023-06-04T00:46:23;5.63;;;2.77;;
77581;SDS011;66726;52.388;9.986;2023-06-04T00:48:57;3.23;;;2.23;;
77581;SDS011;66726;52.388;9.986;2023-06-04T00:51:29;3.63;;;2.20;;
77581;SDS011;66726;52.388;9.986;2023-06-04T00:54:02;2.60;;;2.10;;
77581;SDS011;66726;52.388;9.986;2023-06-04T00:56:36;2.17;;;1.97;;
77581;SDS011;66726;52.388;9.986;2023-06-04T00:59:09;5.53;;;2.60;;
77581;SDS011;66726;52.388;9.986;2023-06-04T01:01:42;3.77;;;2.10;;
77581;SDS011;66726;52.388;9.986;2023-06-04T01:04:24;2.90;;;2.07;;
77581;SDS011;66726;52.388;9.986;2023-06-04T01:07:03;2.93;;;2.10;;
77581;SDS011;66726;52.388;9.986;2023-06-04T01:09:39;3.43;;;2.20;;
77581;SDS011;66726;52.388;9.986;2023-06-04T01:12:13;4.43;;;2.40;;
77581;SDS011;66726;52.388;9.986;2023-06-04T01:14:47;2.60;;;1.90;;
77581;SDS011;66726;52.388;9.986;2023-06-04T01:17:20;5.37;;;2.30;;
77581;SDS011;66726;52.388;9.986;2023-06-04T01:20:06;3.17;;;2.10;;
77581;SDS011;66726;52.388;9.986;2023-06-04T01:22:50;1.90;;;1.80;;
77581;SDS011;66726;52.388;9.986;2023-06-04T01:25:41;3.43;;;2.20;;
77581;SDS011;66726;52.388;9.986;2023-06-04T01:28:16;2.53;;;2.13;;
77581;SDS011;66726;52.388;9.986;2023-06-04T01:30:50;2.57;;;2.37;;
77581;SDS011;66726;52.388;9.986;2023-06-04T01:33:22;2.70;;;2.43;;
77581;SDS011;66726;52.388;9.986;2023-06-04T01:35:54;2.70;;;2.27;;
77581;SDS011;66726;52.388;9.986;2023-06-04T01:38:27;3.50;;;2.20;;
77581;SDS011;66726;52.388;9.986;2023-06-04T01:40:58;2.43;;;2.07;;
77581;SDS011;66726;52.388;9.986;2023-06-04T01:43:30;2.83;;;2.53;;
77581;SDS011;66726;52.388;9.986;2023-06-04T01:46:04;4.50;;;2.47;;
77581;SDS011;66726;52.388;9.986;2023-06-04T01:48:36;3.57;;;2.00;;
77581;SDS011;66726;52.388;9.986;2023-06-04T01:51:08;4.13;;;2.60;;
77581;SDS011;66726;52.388;9.986;2023-06-04T01:53:39;3.60;;;2.70;;
77581;SDS011;66726;52.388;9.986;2023-06-04T01:56:11;4.03;;;2.40;;
77581;SDS011;66726;52.388;9.986;2023-06-04T01:58:43;6.30;;;2.50;;
77581;SDS011;66726;52.388;9.986;2023-06-04T02:01:16;4.17;;;2.30;;
77581;SDS011;66726;52.388;9.986;2023-06-04T02:03:48;3.83;;;2.20;;
77581;SDS011;66726;52.388;9.986;2023-06-04T02:06:20;5.07;;;2.60;;
77581;SDS011;66726;52.388;9.986;2023-06-04T02:08:56;4.90;;;2.67;;
77581;SDS011;66726;52.388;9.986;2023-06-04T02:11:29;4.40;;;2.43;;
77581;SDS011;66726;52.388;9.986;2023-06-04T02:14:01;3.80;;;2.40;;
77581;SDS011;66726;52.388;9.986;2023-06-04T02:16:34;3.80;;;2.57;;
77581;SDS011;66726;52.388;9.986;2023-06-04T02:19:06;4.90;;;2.30;;
77581;SDS011;66726;52.388;9.986;2023-06-04T02:21:39;3.67;;;2.50;;
77581;SDS011;66726;52.388;9.986;2023-06-04T02:24:11;4.70;;;2.23;;
77581;SDS011;66726;52.388;9.986;2023-06-04T02:26:42;4.30;;;2.40;;
77581;SDS011;66726;52.388;9.986;2023-06-04T02:29:14;3.20;;;2.17;;
77581;SDS011;66726;52.388;9.986;2023-06-04T02:31:48;4.00;;;2.47;;
77581;SDS011;66726;52.388;9.986;2023-06-04T02:34:19;3.13;;;2.37;;
77581;SDS011;66726;52.388;9.986;2023-06-04T02:36:52;3.40;;;2.30;;
77581;SDS011;66726;52.388;9.986;2023-06-04T02:39:24;2.47;;;2.27;;
77581;SDS011;66726;52.388;9.986;2023-06-04T02:41:56;4.23;;;2.70;;
77581;SDS011;66726;52.388;9.986;2023-06-04T02:44:28;4.60;;;2.63;;
77581;SDS011;66726;52.388;9.986;2023-06-04T02:47:01;7.47;;;2.97;;
77581;SDS011;66726;52.388;9.986;2023-06-04T02:49:34;4.10;;;3.17;;
77581;SDS011;66726;52.388;9.986;2023-06-04T02:52:06;3.67;;;2.77;;
77581;SDS011;66726;52.388;9.986;2023-06-04T02:54:38;4.77;;;2.70;;
77581;SDS011;66726;52.388;9.986;2023-06-04T02:57:10;3.17;;;2.87;;
77581;SDS011;66726;52.388;9.986;2023-06-04T02:59:42;3.27;;;2.90;;
77581;SDS011;66726;52.388;9.986;2023-06-04T03:02:15;5.00;;;2.50;;
77581;SDS011;66726;52.388;9.986;2023-06-04T03:04:47;3.70;;;2.80;;
77581;SDS011;66726;52.388;9.986;2023-06-04T03:07:21;3.60;;;2.50;;
77581;SDS011;66726;52.388;9.986;2023-06-04T03:09:52;2.50;;;2.30;;
77581;SDS011;66726;52.388;9.986;2023-06-04T03:12:24;3.50;;;2.50;;
77581;SDS011;66726;52.388;9.986;2023-06-04T03:14:57;4.50;;;2.30;;
77581;SDS011;66726;52.388;9.986;2023-06-04T03:17:31;4.90;;;2.83;;
77581;SDS011;66726;52.388;9.986;2023-06-04T03:20:03;3.37;;;2.47;;
77581;SDS011;66726;52.388;9.986;2023-06-04T03:22:37;4.27;;;2.57;;
77581;SDS011;66726;52.388;9.986;2023-06-04T03:25:09;4.20;;;2.53;;
77581;SDS011;66726;52.388;9.986;2023-06-04T03:27:41;4.70;;;2.50;;
77581;SDS011;66726;52.388;9.986;2023-06-04T03:30:12;4.73;;;2.43;;
77581;SDS011;66726;52.388;9.986;2023-06-04T03:32:46;6.30;;;2.50;;
77581;SDS011;66726;52.388;9.986;2023-06-04T03:35:17;4.00;;;2.43;;
77581;SDS011;66726;52.388;9.986;2023-06-04T03:37:49;5.37;;;2.70;;
77581;SDS011;66726;52.388;9.986;2023-06-04T03:40:21;3.13;;;2.10;;
77581;SDS011;66726;52.388;9.986;2023-06-04T03:42:53;5.27;;;2.20;;
77581;SDS011;66726;52.388;9.986;2023-06-04T03:45:26;9.07;;;2.70;;
77581;SDS011;66726;52.388;9.986;2023-06-04T03:47:59;4.03;;;2.47;;
77581;SDS011;66726;52.388;9.986;2023-06-04T03:50:31;4.63;;;2.23;;
77581;SDS011;66726;52.388;9.986;2023-06-04T03:53:04;4.93;;;2.60;;
77581;SDS011;66726;52.388;9.986;2023-06-04T03:55:35;3.40;;;2.20;;
77581;SDS011;66726;52.388;9.986;2023-06-04T03:58:07;3.57;;;2.10;;
77581;SDS011;66726;52.388;9.986;2023-06-04T04:00:40;3.00;;;2.10;;
77581;SDS011;66726;52.388;9.986;2023-06-04T04:03:14;2.77;;;2.03;;
77581;SDS011;66726;52.388;9.986;2023-06-04T04:05:46;4.43;;;2.27;;
77581;SDS011;66726;52.388;9.986;2023-06-04T04:08:17;4.90;;;2.10;;
77581;SDS011;66726;52.388;9.986;2023-06-04T04:10:49;3.80;;;2.40;;
77581;SDS011;66726;52.388;9.986;2023-06-04T04:13:21;4.30;;;2.37;;
77581;SDS011;66726;52.388;9.986;2023-06-04T04:15:53;2.73;;;2.13;;
77581;SDS011;66726;52.388;9.986;2023-06-04T04:18:26;2.60;;;2.13;;
77581;SDS011;66726;52.388;9.986;2023-06-04T04:21:02;3.33;;;2.17;;
77581;SDS011;66726;52.388;9.986;2023-06-04T04:23:34;3.03;;;2.63;;
77581;SDS011;66726;52.388;9.986;2023-06-04T04:26:07;3.37;;;2.13;;
77581;SDS011;66726;52.388;9.986;2023-06-04T04:28:43;3.67;;;2.50;;
77581;SDS011;66726;52.388;9.986;2023-06-04T04:31:15;3.40;;;2.40;;
77581;SDS011;66726;52.388;9.986;2023-06-04T04:33:50;3.13;;;2.10;;
77581;SDS011;66726;52.388;9.986;2023-06-04T04:36:24;2.47;;;2.00;;
77581;SDS011;66726;52.388;9.986;2023-06-04T04:38:55;3.77;;;2.07;;
77581;SDS011;66726;52.388;9.986;2023-06-04T04:41:27;4.20;;;2.13;;
77581;SDS011;66726;52.388;9.986;2023-06-04T04:44:02;2.43;;;2.10;;
77581;SDS011;66726;52.388;9.986;2023-06-04T04:46:34;2.57;;;2.37;;
77581;SDS011;66726;52.388;9.986;2023-06-04T04:49:07;3.97;;;2.20;;
77581;SDS011;66726;52.388;9.986;2023-06-04T04:51:39;4.03;;;2.30;;
77581;SDS011;66726;52.388;9.986;2023-06-04T04:54:11;3.17;;;2.03;;
77581;SDS011;66726;52.388;9.986;2023-06-04T04:56:42;2.10;;;1.90;;
77581;SDS011;66726;52.388;9.986;2023-06-04T04:59:30;2.87;;;2.17;;
77581;SDS011;66726;52.388;9.986;2023-06-04T05:02:02;3.13;;;2.00;;
77581;SDS011;66726;52.388;9.986;2023-06-04T05:04:35;4.43;;;2.17;;
77581;SDS011;66726;52.388;9.986;2023-06-04T05:07:07;2.20;;;2.00;;
77581;SDS011;66726;52.388;9.986;2023-06-04T05:09:39;2.97;;;2.20;;
77581;SDS011;66726;52.388;9.986;2023-06-04T05:12:11;2.57;;;2.30;;
77581;SDS011;66726;52.388;9.986;2023-06-04T05:14:43;2.50;;;2.00;;
77581;SDS011;66726;52.388;9.986;2023-06-04T05:17:16;2.07;;;1.80;;
77581;SDS011;66726;52.388;9.986;2023-06-04T05:19:57;4.20;;;2.20;;
77581;SDS011;66726;52.388;9.986;2023-06-04T05:22:30;3.50;;;2.17;;
77581;SDS011;66726;52.388;9.986;2023-06-04T05:25:03;2.43;;;2.20;;
77581;SDS011;66726;52.388;9.986;2023-06-04T05:27:37;3.30;;;2.20;;
77581;SDS011;66726;52.388;9.986;2023-06-04T05:30:09;3.77;;;2.30;;
77581;SDS011;66726;52.388;9.986;2023-06-04T05:32:43;5.67;;;2.53;;
77581;SDS011;66726;52.388;9.986;2023-06-04T05:35:18;2.57;;;2.20;;
77581;SDS011;66726;52.388;9.986;2023-06-04T05:37:50;3.20;;;2.03;;
77581;SDS011;66726;52.388;9.986;2023-06-04T05:40:22;2.83;;;2.17;;
77581;SDS011;66726;52.388;9.986;2023-06-04T05:42:54;2.37;;;2.10;;
77581;SDS011;66726;52.388;9.986;2023-06-04T05:45:26;2.23;;;2.03;;
77581;SDS011;66726;52.388;9.986;2023-06-04T05:47:57;5.27;;;2.40;;
77581;SDS011;66726;52.388;9.986;2023-06-04T05:50:31;3.00;;;2.10;;
77581;SDS011;66726;52.388;9.986;2023-06-04T05:53:03;7.57;;;2.30;;
77581;SDS011;66726;52.388;9.986;2023-06-04T05:55:35;5.10;;;2.40;;
77581;SDS011;66726;52.388;9.986;2023-06-04T05:58:07;3.20;;;2.20;;
77581;SDS011;66726;52.388;9.986;2023-06-04T06:00:39;3.13;;;2.47;;
77581;SDS011;66726;52.388;9.986;2023-06-04T06:03:11;3.13;;;2.50;;
77581;SDS011;66726;52.388;9.986;2023-06-04T06:05:45;3.77;;;2.30;;
77581;SDS011;66726;52.388;9.986;2023-06-04T06:08:16;2.70;;;2.23;;
77581;SDS011;66726;52.388;9.986;2023-06-04T06:10:49;2.60;;;2.30;;
77581;SDS011;66726;52.388;9.986;2023-06-04T06:13:20;3.73;;;2.40;;
77581;SDS011;66726;52.388;9.986;2023-06-04T06:15:54;3.27;;;2.20;;
77581;SDS011;66726;52.388;9.986;2023-06-04T06:18:26;6.00;;;2.17;;
77581;SDS011;66726;52.388;9.986;2023-06-04T06:21:00;2.90;;;2.53;;
77581;SDS011;66726;52.388;9.986;2023-06-04T06:23:32;3.07;;;2.07;;
77581;SDS011;66726;52.388;9.986;2023-06-04T06:26:04;2.67;;;2.20;;
77581;SDS011;66726;52.388;9.986;2023-06-04T06:28:35;2.97;;;2.47;;
77581;SDS011;66726;52.388;9.986;2023-06-04T06:31:07;3.67;;;2.30;;
77581;SDS011;66726;52.388;9.986;2023-06-04T06:33:39;3.23;;;2.40;;
77581;SDS011;66726;52.388;9.986;2023-06-04T06:36:13;3.47;;;2.30;;
77581;SDS011;66726;52.388;9.986;2023-06-04T06:38:45;3.70;;;2.30;;
77581;SDS011;66726;52.388;9.986;2023-06-04T06:41:18;2.80;;;2.30;;
77581;SDS011;66726;52.388;9.986;2023-06-04T06:43:50;2.97;;;2.20;;
77581;SDS011;66726;52.388;9.986;2023-06-04T06:46:22;6.23;;;2.40;;
77581;SDS011;66726;52.388;9.986;2023-06-04T06:48:54;4.83;;;2.30;;
77581;SDS011;66726;52.388;9.986;2023-06-04T06:51:27;2.63;;;2.33;;
77581;SDS011;66726;52.388;9.986;2023-06-04T06:53:59;3.20;;;2.03;;
77581;SDS011;66726;52.388;9.986;2023-06-04T06:56:31;3.83;;;2.10;;
77581;SDS011;66726;52.388;9.986;2023-06-04T06:59:05;5.20;;;2.20;;
77581;SDS011;66726;52.388;9.986;2023-06-04T07:01:38;4.00;;;1.93;;
77581;SDS011;66726;52.388;9.986;2023-06-04T07:04:10;2.50;;;1.70;;
77581;SDS011;66726;52.388;9.986;2023-06-04T07:06:43;3.70;;;2.10;;
77581;SDS011;66726;52.388;9.986;2023-06-04T07:09:17;4.97;;;2.73;;
77581;SDS011;66726;52.388;9.986;2023-06-04T07:11:49;6.87;;;2.43;;
77581;SDS011;66726;52.388;9.986;2023-06-04T07:14:23;3.43;;;2.20;;
77581;SDS011;66726;52.388;9.986;2023-06-04T07:16:54;2.40;;;2.20;;
77581;SDS011;66726;52.388;9.986;2023-06-04T07:19:26;3.47;;;2.37;;
77581;SDS011;66726;52.388;9.986;2023-06-04T07:21:59;2.57;;;1.93;;
77581;SDS011;66726;52.388;9.986;2023-06-04T07:24:32;5.73;;;2.50;;
77581;SDS011;66726;52.388;9.986;2023-06-04T07:27:09;3.00;;;2.00;;
77581;SDS011;66726;52.388;9.986;2023-06-04T07:29:43;5.90;;;2.33;;
77581;SDS011;66726;52.388;9.986;2023-06-04T07:32:15;3.97;;;2.03;;
77581;SDS011;66726;52.388;9.986;2023-06-04T07:34:46;3.70;;;2.47;;
77581;SDS011;66726;52.388;9.986;2023-06-04T07:37:20;4.37;;;2.57;;
77581;SDS011;66726;52.388;9.986;2023-06-04T07:39:52;3.70;;;2.40;;
77581;SDS011;66726;52.388;9.986;2023-06-04T07:42:23;3.70;;;2.43;;
77581;SDS011;66726;52.388;9.986;2023-06-04T07:44:55;5.07;;;2.33;;
77581;SDS011;66726;52.388;9.986;2023-06-04T07:47:28;2.83;;;2.20;;
77581;SDS011;66726;52.388;9.986;2023-06-04T07:49:59;2.97;;;2.47;;
77581;SDS011;66726;52.388;9.986;2023-06-04T07:52:34;3.10;;;2.20;;
77581;SDS011;66726;52.388;9.986;2023-06-04T07:55:06;2.70;;;2.40;;
77581;SDS011;66726;52.388;9.986;2023-06-04T07:57:38;3.23;;;1.97;;
77581;SDS011;66726;52.388;9.986;2023-06-04T08:00:12;2.67;;;2.10;;
77581;SDS011;66726;52.388;9.986;2023-06-04T08:02:46;4.13;;;2.23;;
77581;SDS011;66726;52.388;9.986;2023-06-04T08:05:18;2.20;;;2.00;;
77581;SDS011;66726;52.388;9.986;2023-06-04T08:07:52;2.80;;;1.90;;
77581;SDS011;66726;52.388;9.986;2023-06-04T08:10:24;2.53;;;2.10;;
77581;SDS011;66726;52.388;9.986;2023-06-04T08:12:56;4.43;;;2.00;;
77581;SDS011;66726;52.388;9.986;2023-06-04T08:15:30;4.63;;;2.00;;
77581;SDS011;66726;52.388;9.986;2023-06-04T08:18:01;3.77;;;1.87;;
77581;SDS011;66726;52.388;9.986;2023-06-04T08:20:33;2.53;;;1.80;;
77581;SDS011;66726;52.388;9.986;2023-06-04T08:23:07;3.03;;;2.00;;
77581;SDS011;66726;52.388;9.986;2023-06-04T08:25:38;4.93;;;2.10;;
77581;SDS011;66726;52.388;9.986;2023-06-04T08:28:10;3.80;;;2.00;;
77581;SDS011;66726;52.388;9.986;2023-06-04T08:30:45;2.93;;;2.13;;
77581;SDS011;66726;52.388;9.986;2023-06-04T08:33:17;2.13;;;1.80;;
77581;SDS011;66726;52.388;9.986;2023-06-04T08:35:49;2.60;;;2.10;;
77581;SDS011;66726;52.388;9.986;2023-06-04T08:38:22;2.47;;;1.87;;
77581;SDS011;66726;52.388;9.986;2023-06-04T08:40:53;2.97;;;2.10;;
77581;SDS011;66726;52.388;9.986;2023-06-04T08:43:37;2.00;;;1.80;;
77581;SDS011;66726;52.388;9.986;2023-06-04T08:46:11;2.33;;;1.60;;
77581;SDS011;66726;52.388;9.986;2023-06-04T08:48:45;2.80;;;1.70;;
77581;SDS011;66726;52.388;9.986;2023-06-04T08:51:17;4.03;;;1.90;;
77581;SDS011;66726;52.388;9.986;2023-06-04T08:53:51;2.77;;;1.77;;
77581;SDS011;66726;52.388;9.986;2023-06-04T08:56:25;3.13;;;1.80;;
77581;SDS011;66726;52.388;9.986;2023-06-04T08:58:59;2.30;;;1.70;;
77581;SDS011;66726;52.388;9.986;2023-06-04T09:01:34;2.27;;;2.00;;
77581;SDS011;66726;52.388;9.986;2023-06-04T09:04:08;3.20;;;1.63;;
77581;SDS011;66726;52.388;9.986;2023-06-04T09:06:40;3.37;;;1.57;;
77581;SDS011;66726;52.388;9.986;2023-06-04T09:09:15;4.27;;;1.73;;
77581;SDS011;66726;52.388;9.986;2023-06-04T09:11:51;3.10;;;2.03;;
77581;SDS011;66726;52.388;9.986;2023-06-04T09:14:24;5.73;;;1.80;;
77581;SDS011;66726;52.388;9.986;2023-06-04T09:16:56;3.77;;;1.77;;
77581;SDS011;66726;52.388;9.986;2023-06-04T09:19:28;2.40;;;1.70;;
77581;SDS011;66726;52.388;9.986;2023-06-04T09:22:00;1.80;;;1.40;;
77581;SDS011;66726;52.388;9.986;2023-06-04T09:24:40;1.97;;;1.47;;
77581;SDS011;66726;52.388;9.986;2023-06-04T09:27:14;1.97;;;1.60;;
77581;SDS011;66726;52.388;9.986;2023-06-04T09:29:48;3.13;;;1.70;;
77581;SDS011;66726;52.388;9.986;2023-06-04T09:32:22;3.37;;;1.60;;
77581;SDS011;66726;52.388;9.986;2023-06-04T09:34:55;2.90;;;1.90;;
77581;SDS011;66726;52.388;9.986;2023-06-04T09:37:38;1.93;;;1.60;;
77581;SDS011;66726;52.388;9.986;2023-06-04T09:40:23;2.63;;;1.70;;
77581;SDS011;66726;52.388;9.986;2023-06-04T09:43:04;3.33;;;1.63;;
77581;SDS011;66726;52.388;9.986;2023-06-04T09:45:37;1.83;;;1.50;;
77581;SDS011;66726;52.388;9.986;2023-06-04T09:48:09;4.33;;;2.10;;
77581;SDS011;66726;52.388;9.986;2023-06-04T09:50:51;2.90;;;1.73;;
77581;SDS011;66726;52.388;9.986;2023-06-04T09:53:33;1.77;;;1.47;;
77581;SDS011;66726;52.388;9.986;2023-06-04T09:56:07;2.73;;;1.70;;
77581;SDS011;66726;52.388;9.986;2023-06-04T09:58:40;2.47;;;1.60;;
77581;SDS011;66726;52.388;9.986;2023-06-04T10:01:16;2.73;;;1.47;;
77581;SDS011;66726;52.388;9.986;2023-06-04T10:03:50;2.83;;;1.70;;
77581;SDS011;66726;52.388;9.986;2023-06-04T10:06:24;5.43;;;1.80;;
77581;SDS011;66726;52.388;9.986;2023-06-04T10:09:00;5.00;;;2.00;;
77581;SDS011;66726;52.388;9.986;2023-06-04T10:11:39;2.30;;;1.60;;
77581;SDS011;66726;52.388;9.986;2023-06-04T10:14:18;3.33;;;1.60;;
77581;SDS011;66726;52.388;9.986;2023-06-04T10:16:57;2.00;;;1.77;;
77581;SDS011;66726;52.388;9.986;2023-06-04T10:19:30;3.03;;;1.60;;
77581;SDS011;66726;52.388;9.986;2023-06-04T10:22:05;2.63;;;1.70;;
77581;SDS011;66726;52.388;9.986;2023-06-04T10:24:37;2.13;;;1.80;;
77581;SDS011;66726;52.388;9.986;2023-06-04T10:27:12;2.30;;;1.40;;
77581;SDS011;66726;52.388;9.986;2023-06-04T10:29:46;3.30;;;1.77;;
77581;SDS011;66726;52.388;9.986;2023-06-04T10:32:20;3.23;;;1.73;;
77581;SDS011;66726;52.388;9.986;2023-06-04T10:34:54;1.80;;;1.47;;
77581;SDS011;66726;52.388;9.986;2023-06-04T10:37:31;4.10;;;1.40;;
77581;SDS011;66726;52.388;9.986;2023-06-04T10:40:03;3.27;;;1.57;;
77581;SDS011;66726;52.388;9.986;2023-06-04T10:42:39;2.73;;;1.43;;
77581;SDS011;66726;52.388;9.986;2023-06-04T10:45:10;1.73;;;1.43;;
77581;SDS011;66726;52.388;9.986;2023-06-04T10:47:42;1.73;;;1.40;;
77581;SDS011;66726;52.388;9.986;2023-06-04T10:50:14;1.40;;;1.20;;
77581;SDS011;66726;52.388;9.986;2023-06-04T10:52:51;2.97;;;1.60;;
77581;SDS011;66726;52.388;9.986;2023-06-04T10:55:24;1.57;;;1.47;;
77581;SDS011;66726;52.388;9.986;2023-06-04T10:57:58;2.87;;;1.40;;
77581;SDS011;66726;52.388;9.986;2023-06-04T11:00:35;1.80;;;1.33;;
77581;SDS011;66726;52.388;9.986;2023-06-04T11:03:09;3.57;;;1.37;;
77581;SDS011;66726;52.388;9.986;2023-06-04T11:05:44;2.43;;;1.33;;
77581;SDS011;66726;52.388;9.986;2023-06-04T11:08:25;2.83;;;1.50;;
77581;SDS011;66726;52.388;9.986;2023-06-04T11:10:58;2.00;;;1.27;;
77581;SDS011;66726;52.388;9.986;2023-06-04T11:13:42;6.83;;;1.90;;
77581;SDS011;66726;52.388;9.986;2023-06-04T11:16:14;1.80;;;1.47;;
77581;SDS011;66726;52.388;9.986;2023-06-04T11:18:54;3.20;;;1.27;;
77581;SDS011;66726;52.388;9.986;2023-06-04T11:21:28;2.40;;;2.03;;
77581;SDS011;66726;52.388;9.986;2023-06-04T11:24:04;3.47;;;1.40;;
77581;SDS011;66726;52.388;9.986;2023-06-04T11:26:39;5.13;;;1.40;;
77581;SDS011;66726;52.388;9.986;2023-06-04T11:29:27;1.70;;;1.10;;
77581;SDS011;66726;52.388;9.986;2023-06-04T11:31:59;4.10;;;1.30;;
77581;SDS011;66726;52.388;9.986;2023-06-04T11:34:31;2.83;;;1.50;;
77581;SDS011;66726;52.388;9.986;2023-06-04T11:37:09;1.27;;;1.17;;
77581;SDS011;66726;52.388;9.986;2023-06-04T11:39:41;2.00;;;1.40;;
77581;SDS011;66726;52.388;9.986;2023-06-04T11:42:13;1.50;;;1.40;;
77581;SDS011;66726;52.388;9.986;2023-06-04T11:44:47;1.63;;;1.45;;
77581;SDS011;66726;52.388;9.986;2023-06-04T11:47:24;1.80;;;1.50;;
77581;SDS011;66726;52.388;9.986;2023-06-04T11:49:57;2.42;;;1.30;;
77581;SDS011;66726;52.388;9.986;2023-06-04T11:52:29;3.40;;;1.60;;
77581;SDS011;66726;52.388;9.986;2023-06-04T11:55:03;2.90;;;1.45;;
77581;SDS011;66726;52.388;9.986;2023-06-04T11:57:37;1.98;;;1.50;;
77581;SDS011;66726;52.388;9.986;2023-06-04T12:00:13;2.30;;;1.50;;
77581;SDS011;66726;52.388;9.986;2023-06-04T12:02:50;1.75;;;1.65;;
77581;SDS011;66726;52.388;9.986;2023-06-04T12:05:30;3.65;;;1.30;;
77581;SDS011;66726;52.388;9.986;2023-06-04T12:08:05;1.63;;;1.30;;
77581;SDS011;66726;52.388;9.986;2023-06-04T12:10:38;2.55;;;1.60;;
77581;SDS011;66726;52.388;9.986;2023-06-04T12:13:11;3.03;;;1.55;;
77581;SDS011;66726;52.388;9.986;2023-06-04T12:15:50;3.05;;;1.30;;
77581;SDS011;66726;52.388;9.986;2023-06-04T12:18:23;1.85;;;1.60;;
77581;SDS011;66726;52.388;9.986;2023-06-04T12:20:55;2.03;;;1.40;;
77581;SDS011;66726;52.388;9.986;2023-06-04T12:23:27;2.90;;;1.50;;
77581;SDS011;66726;52.388;9.986;2023-06-04T12:25:59;3.45;;;1.45;;
77581;SDS011;66726;52.388;9.986;2023-06-04T12:28:31;2.60;;;1.48;;
77581;SDS011;66726;52.388;9.986;2023-06-04T12:31:04;2.92;;;1.33;;
77581;SDS011;66726;52.388;9.986;2023-06-04T12:33:46;3.55;;;1.55;;
77581;SDS011;66726;52.388;9.986;2023-06-04T12:36:18;1.30;;;1.20;;
77581;SDS011;66726;52.388;9.986;2023-06-04T12:38:50;1.60;;;1.50;;
77581;SDS011;66726;52.388;9.986;2023-06-04T12:41:25;3.53;;;1.55;;
77581;SDS011;66726;52.388;9.986;2023-06-04T12:43:59;2.05;;;1.35;;
77581;SDS011;66726;52.388;9.986;2023-06-04T12:46:33;1.80;;;1.63;;
77581;SDS011;66726;52.388;9.986;2023-06-04T12:49:04;2.70;;;1.30;;
77581;SDS011;66726;52.388;9.986;2023-06-04T12:51:36;1.83;;;1.38;;
77581;SDS011;66726;52.388;9.986;2023-06-04T12:54:08;3.03;;;1.60;;
77581;SDS011;66726;52.388;9.986;2023-06-04T12:56:41;2.50;;;1.50;;
77581;SDS011;66726;52.388;9.986;2023-06-04T12:59:13;2.55;;;1.27;;
77581;SDS011;66726;52.388;9.986;2023-06-04T13:01:46;1.52;;;1.42;;
77581;SDS011;66726;52.388;9.986;2023-06-04T13:04:19;1.73;;;1.35;;
77581;SDS011;66726;52.388;9.986;2023-06-04T13:06:52;2.30;;;1.75;;
77581;SDS011;66726;52.388;9.986;2023-06-04T13:09:26;2.13;;;1.67;;
77581;SDS011;66726;52.388;9.986;2023-06-04T13:11:59;3.45;;;1.35;;
77581;SDS011;66726;52.388;9.986;2023-06-04T13:14:31;2.20;;;1.40;;
77581;SDS011;66726;52.388;9.986;2023-06-04T13:17:04;1.83;;;1.58;;
77581;SDS011;66726;52.388;9.986;2023-06-04T13:19:48;1.65;;;1.50;;
77581;SDS011;66726;52.388;9.986;2023-06-04T13:22:19;1.60;;;1.45;;
77581;SDS011;66726;52.388;9.986;2023-06-04T13:24:51;1.73;;;1.60;;
77581;SDS011;66726;52.388;9.986;2023-06-04T13:27:23;2.60;;;1.45;;
77581;SDS011;66726;52.388;9.986;2023-06-04T13:29:55;3.33;;;1.80;;
77581;SDS011;66726;52.388;9.986;2023-06-04T13:32:29;3.15;;;1.45;;
77581;SDS011;66726;52.388;9.986;2023-06-04T13:35:01;2.67;;;1.60;;
77581;SDS011;66726;52.388;9.986;2023-06-04T13:37:34;1.88;;;1.67;;
77581;SDS011;66726;52.388;9.986;2023-06-04T13:40:06;1.85;;;1.65;;
77581;SDS011;66726;52.388;9.986;2023-06-04T13:42:40;3.22;;;1.65;;
77581;SDS011;66726;52.388;9.986;2023-06-04T13:45:12;1.83;;;1.40;;
77581;SDS011;66726;52.388;9.986;2023-06-04T13:47:47;1.45;;;1.35;;
77581;SDS011;66726;52.388;9.986;2023-06-04T13:50:20;2.60;;;1.58;;
77581;SDS011;66726;52.388;9.986;2023-06-04T13:52:52;1.73;;;1.45;;
77581;SDS011;66726;52.388;9.986;2023-06-04T13:55:24;1.85;;;1.55;;
77581;SDS011;66726;52.388;9.986;2023-06-04T13:57:56;4.13;;;1.50;;
77581;SDS011;66726;52.388;9.986;2023-06-04T14:00:28;1.95;;;1.50;;
77581;SDS011;66726;52.388;9.986;2023-06-04T14:03:01;1.98;;;1.55;;
77581;SDS011;66726;52.388;9.986;2023-06-04T14:05:33;2.70;;;1.60;;
77581;SDS011;66726;52.388;9.986;2023-06-04T14:08:05;3.00;;;1.60;;
77581;SDS011;66726;52.388;9.986;2023-06-04T14:10:38;3.15;;;1.75;;
77581;SDS011;66726;52.388;9.986;2023-06-04T14:13:10;4.00;;;1.80;;
77581;SDS011;66726;52.388;9.986;2023-06-04T14:15:42;3.60;;;1.58;;
77581;SDS011;66726;52.388;9.986;2023-06-04T14:18:16;2.17;;;1.50;;
77581;SDS011;66726;52.388;9.986;2023-06-04T14:20:47;3.25;;;1.60;;
77581;SDS011;66726;52.388;9.986;2023-06-04T14:23:20;2.45;;;1.83;;
77581;SDS011;66726;52.388;9.986;2023-06-04T14:25:51;1.70;;;1.52;;
77581;SDS011;66726;52.388;9.986;2023-06-04T14:28:23;3.47;;;1.80;;
77581;SDS011;66726;52.388;9.986;2023-06-04T14:30:56;1.75;;;1.65;;
77581;SDS011;66726;52.388;9.986;2023-06-04T14:33:29;2.80;;;1.75;;
77581;SDS011;66726;52.388;9.986;2023-06-04T14:36:03;1.92;;;1.52;;
77581;SDS011;66726;52.388;9.986;2023-06-04T14:38:34;1.83;;;1.73;;
77581;SDS011;66726;52.388;9.986;2023-06-04T14:41:06;3.40;;;1.70;;
77581;SDS011;66726;52.388;9.986;2023-06-04T14:43:39;1.98;;;1.77;;
77581;SDS011;66726;52.388;9.986;2023-06-04T14:46:11;1.65;;;1.45;;
77581;SDS011;66726;52.388;9.986;2023-06-04T14:48:45;2.50;;;1.73;;
77581;SDS011;66726;52.388;9.986;2023-06-04T14:51:17;4.13;;;1.67;;
77581;SDS011;66726;52.388;9.986;2023-06-04T14:53:50;1.85;;;1.75;;
77581;SDS011;66726;52.388;9.986;2023-06-04T14:56:21;2.05;;;1.70;;
77581;SDS011;66726;52.388;9.986;2023-06-04T14:58:54;1.83;;;1.67;;
77581;SDS011;66726;52.388;9.986;2023-06-04T15:01:27;1.75;;;1.65;;
77581;SDS011;66726;52.388;9.986;2023-06-04T15:04:00;2.10;;;1.90;;
77581;SDS011;66726;52.388;9.986;2023-06-04T15:06:32;1.92;;;1.73;;
77581;SDS011;66726;52.388;9.986;2023-06-04T15:09:04;2.67;;;1.70;;
77581;SDS011;66726;52.388;9.986;2023-06-04T15:11:36;4.25;;;2.00;;
77581;SDS011;66726;52.388;9.986;2023-06-04T15:14:08;3.30;;;1.60;;
77581;SDS011;66726;52.388;9.986;2023-06-04T15:16:40;2.08;;;1.88;;
77581;SDS011;66726;52.388;9.986;2023-06-04T15:19:14;6.22;;;2.00;;
77581;SDS011;66726;52.388;9.986;2023-06-04T15:21:46;1.73;;;1.63;;
77581;SDS011;66726;52.388;9.986;2023-06-04T15:24:17;2.40;;;1.75;;